sensor_id;sensor_type;location;lat;lon;timestamp;temperature;humidity
11089;DHT22;5598;48.648;8.908;2023-05-10T00:00:24;12.80;99.90
11089;DHT22;5598;48.648;8.908;2023-05-10T00:02:51;12.70;99.90
11089;DHT22;5598;48.648;8.908;2023-05-10T00:05:18;12.60;99.90
11089;DHT22;5598;48.648;8.908;2023-05-10T00:07:45;12.60;99.90
11089;DHT22;5598;48.648;8.908;2023-05-10T00:10:12;12.60;99.90
11089;DHT22;5598;48.648;8.908;2023-05-10T00:12:39;12.50;99.90
11089;DHT22;5598;48.648;8.908;2023-05-10T00:15:07;12.50;99.90
11089;DHT22;5598;48.648;8.908;2023-05-10T00:17:35;12.50;99.90
11089;DHT22;5598;48.648;8.908;2023-05-10T00:20:02;12.50;99.90
11089;DHT22;5598;48.648;8.908;2023-05-10T00:22:30;12.50;99.90
11089;DHT22;5598;48.648;8.908;2023-05-10T00:24:57;12.50;99.90
11089;DHT22;5598;48.648;8.908;2023-05-10T00:27:24;12.50;99.90
11089;DHT22;5598;48.648;8.908;2023-05-10T00:29:51;12.50;99.90
11089;DHT22;5598;48.648;8.908;2023-05-10T00:32:18;12.50;99.90
11089;DHT22;5598;48.648;8.908;2023-05-10T00:34:46;12.50;99.90
11089;DHT22;5598;48.648;8.908;2023-05-10T00:37:13;12.40;99.90
11089;DHT22;5598;48.648;8.908;2023-05-10T00:39:39;12.40;99.90
11089;DHT22;5598;48.648;8.908;2023-05-10T00:42:06;12.40;99.90
11089;DHT22;5598;48.648;8.908;2023-05-10T00:44:33;12.40;99.90
11089;DHT22;5598;48.648;8.908;2023-05-10T00:47:00;12.40;99.90
11089;DHT22;5598;48.648;8.908;2023-05-10T00:49:27;12.40;99.90
11089;DHT22;5598;48.648;8.908;2023-05-10T00:51:56;12.30;99.90
11089;DHT22;5598;48.648;8.908;2023-05-10T00:54:23;12.10;99.90
11089;DHT22;5598;48.648;8.908;2023-05-10T00:56:49;12.10;99.90
11089;DHT22;5598;48.648;8.908;2023-05-10T00:59:17;12.10;99.90
11089;DHT22;5598;48.648;8.908;2023-05-10T01:01:44;12.10;99.90
11089;DHT22;5598;48.648;8.908;2023-05-10T01:04:11;12.00;99.90
11089;DHT22;5598;48.648;8.908;2023-05-10T01:06:39;12.00;99.90
11089;DHT22;5598;48.648;8.908;2023-05-10T01:09:07;12.10;99.90
11089;DHT22;5598;48.648;8.908;2023-05-10T01:11:34;12.10;99.90
11089;DHT22;5598;48.648;8.908;2023-05-10T01:14:02;12.10;99.90
11089;DHT22;5598;48.648;8.908;2023-05-10T01:16:31;12.10;99.90
11089;DHT22;5598;48.648;8.908;2023-05-10T01:18:58;12.10;99.90
11089;DHT22;5598;48.648;8.908;2023-05-10T01:21:33;12.00;99.90
11089;DHT22;5598;48.648;8.908;2023-05-10T01:24:17;12.00;99.90
11089;DHT22;5598;48.648;8.908;2023-05-10T01:27:07;11.90;99.90
11089;DHT22;5598;48.648;8.908;2023-05-10T01:30:07;11.90;99.90
11089;DHT22;5598;48.648;8.908;2023-05-10T01:32:40;11.80;99.90
11089;DHT22;5598;48.648;8.908;2023-05-10T01:35:15;11.80;99.90
11089;DHT22;5598;48.648;8.908;2023-05-10T01:37:46;11.80;99.90
11089;DHT22;5598;48.648;8.908;2023-05-10T01:40:23;11.90;99.90
11089;DHT22;5598;48.648;8.908;2023-05-10T01:42:53;11.90;99.90
11089;DHT22;5598;48.648;8.908;2023-05-10T01:45:27;11.90;99.90
11089;DHT22;5598;48.648;8.908;2023-05-10T01:48:03;11.80;99.90
11089;DHT22;5598;48.648;8.908;2023-05-10T01:50:32;11.80;99.90
11089;DHT22;5598;48.648;8.908;2023-05-10T01:53:01;11.80;99.90
11089;DHT22;5598;48.648;8.908;2023-05-10T01:55:32;11.70;99.90
11089;DHT22;5598;48.648;8.908;2023-05-10T01:58:05;11.70;99.90
11089;DHT22;5598;48.648;8.908;2023-05-10T02:00:34;11.70;99.90
11089;DHT22;5598;48.648;8.908;2023-05-10T02:03:06;11.70;99.90
11089;DHT22;5598;48.648;8.908;2023-05-10T02:05:34;11.70;99.90
11089;DHT22;5598;48.648;8.908;2023-05-10T02:08:04;11.60;99.90
11089;DHT22;5598;48.648;8.908;2023-05-10T02:10:33;11.50;99.90
11089;DHT22;5598;48.648;8.908;2023-05-10T02:13:02;11.50;99.90
11089;DHT22;5598;48.648;8.908;2023-05-10T02:15:30;11.50;99.90
11089;DHT22;5598;48.648;8.908;2023-05-10T02:17:58;11.50;99.90
11089;DHT22;5598;48.648;8.908;2023-05-10T02:20:29;11.40;99.90
11089;DHT22;5598;48.648;8.908;2023-05-10T02:22:57;11.40;99.90
11089;DHT22;5598;48.648;8.908;2023-05-10T02:25:25;11.30;99.90
11089;DHT22;5598;48.648;8.908;2023-05-10T02:27:56;11.20;99.90
11089;DHT22;5598;48.648;8.908;2023-05-10T02:30:23;11.20;99.90
11089;DHT22;5598;48.648;8.908;2023-05-10T02:32:51;11.20;99.90
11089;DHT22;5598;48.648;8.908;2023-05-10T02:35:19;11.20;99.90
11089;DHT22;5598;48.648;8.908;2023-05-10T02:37:47;11.30;99.90
11089;DHT22;5598;48.648;8.908;2023-05-10T02:40:15;11.30;99.90
11089;DHT22;5598;48.648;8.908;2023-05-10T02:42:44;11.40;99.90
11089;DHT22;5598;48.648;8.908;2023-05-10T02:45:15;11.40;99.90
11089;DHT22;5598;48.648;8.908;2023-05-10T02:47:43;11.40;99.90
11089;DHT22;5598;48.648;8.908;2023-05-10T02:50:10;11.40;99.90
11089;DHT22;5598;48.648;8.908;2023-05-10T02:52:40;11.40;99.90
11089;DHT22;5598;48.648;8.908;2023-05-10T02:55:11;11.40;99.90
11089;DHT22;5598;48.648;8.908;2023-05-10T02:57:43;11.40;99.90
11089;DHT22;5598;48.648;8.908;2023-05-10T03:00:13;11.40;99.90
11089;DHT22;5598;48.648;8.908;2023-05-10T03:02:40;11.40;99.90
11089;DHT22;5598;48.648;8.908;2023-05-10T03:05:07;11.40;99.90
11089;DHT22;5598;48.648;8.908;2023-05-10T03:07:34;11.40;99.90
11089;DHT22;5598;48.648;8.908;2023-05-10T03:10:02;11.50;99.90
11089;DHT22;5598;48.648;8.908;2023-05-10T03:12:41;11.40;99.90
11089;DHT22;5598;48.648;8.908;2023-05-10T03:15:17;11.40;99.90
11089;DHT22;5598;48.648;8.908;2023-05-10T03:17:48;11.40;99.90
11089;DHT22;5598;48.648;8.908;2023-05-10T03:20:22;11.40;99.90
11089;DHT22;5598;48.648;8.908;2023-05-10T03:22:53;11.30;99.90
11089;DHT22;5598;48.648;8.908;2023-05-10T03:25:21;11.30;99.90
11089;DHT22;5598;48.648;8.908;2023-05-10T03:27:52;11.30;99.90
11089;DHT22;5598;48.648;8.908;2023-05-10T03:30:19;11.30;99.90
11089;DHT22;5598;48.648;8.908;2023-05-10T03:32:46;11.30;99.90
11089;DHT22;5598;48.648;8.908;2023-05-10T03:35:13;11.30;99.90
11089;DHT22;5598;48.648;8.908;2023-05-10T03:37:40;11.30;99.90
11089;DHT22;5598;48.648;8.908;2023-05-10T03:40:08;11.30;99.90
11089;DHT22;5598;48.648;8.908;2023-05-10T03:42:35;11.20;99.90
11089;DHT22;5598;48.648;8.908;2023-05-10T03:45:03;11.20;99.90
11089;DHT22;5598;48.648;8.908;2023-05-10T03:47:30;11.20;99.90
11089;DHT22;5598;48.648;8.908;2023-05-10T03:49:57;11.20;99.90
11089;DHT22;5598;48.648;8.908;2023-05-10T03:52:24;11.20;99.90
11089;DHT22;5598;48.648;8.908;2023-05-10T03:54:51;11.20;99.90
11089;DHT22;5598;48.648;8.908;2023-05-10T03:57:18;11.20;99.90
11089;DHT22;5598;48.648;8.908;2023-05-10T03:59:44;11.20;99.90
11089;DHT22;5598;48.648;8.908;2023-05-10T04:02:12;11.20;99.90
11089;DHT22;5598;48.648;8.908;2023-05-10T04:04:40;11.10;99.90
11089;DHT22;5598;48.648;8.908;2023-05-10T04:07:07;11.10;99.90
11089;DHT22;5598;48.648;8.908;2023-05-10T04:09:35;11.20;99.90
11089;DHT22;5598;48.648;8.908;2023-05-10T04:12:02;11.10;99.90
11089;DHT22;5598;48.648;8.908;2023-05-10T04:14:29;11.20;99.90
11089;DHT22;5598;48.648;8.908;2023-05-10T04:16:56;11.20;99.90
11089;DHT22;5598;48.648;8.908;2023-05-10T04:19:28;11.20;99.90
11089;DHT22;5598;48.648;8.908;2023-05-10T04:21:55;11.30;99.90
11089;DHT22;5598;48.648;8.908;2023-05-10T04:24:21;11.30;99.90
11089;DHT22;5598;48.648;8.908;2023-05-10T04:26:48;11.30;99.90
11089;DHT22;5598;48.648;8.908;2023-05-10T04:29:15;11.30;99.90
11089;DHT22;5598;48.648;8.908;2023-05-10T04:31:42;11.30;99.90
11089;DHT22;5598;48.648;8.908;2023-05-10T04:34:08;11.30;99.90
11089;DHT22;5598;48.648;8.908;2023-05-10T04:36:37;11.40;99.90
11089;DHT22;5598;48.648;8.908;2023-05-10T04:39:05;11.30;99.90
11089;DHT22;5598;48.648;8.908;2023-05-10T04:41:31;11.30;99.90
11089;DHT22;5598;48.648;8.908;2023-05-10T04:43:58;11.30;99.90
11089;DHT22;5598;48.648;8.908;2023-05-10T04:46:25;11.40;99.90
11089;DHT22;5598;48.648;8.908;2023-05-10T04:48:52;11.30;99.90
11089;DHT22;5598;48.648;8.908;2023-05-10T04:51:19;11.40;99.90
11089;DHT22;5598;48.648;8.908;2023-05-10T04:53:47;11.40;99.90
11089;DHT22;5598;48.648;8.908;2023-05-10T04:56:14;11.40;99.90
11089;DHT22;5598;48.648;8.908;2023-05-10T04:58:41;11.40;99.90
11089;DHT22;5598;48.648;8.908;2023-05-10T05:01:08;11.30;99.90
11089;DHT22;5598;48.648;8.908;2023-05-10T05:03:36;11.40;99.90
11089;DHT22;5598;48.648;8.908;2023-05-10T05:06:03;11.50;99.90
11089;DHT22;5598;48.648;8.908;2023-05-10T05:08:30;11.50;99.90
11089;DHT22;5598;48.648;8.908;2023-05-10T05:10:58;11.50;99.90
11089;DHT22;5598;48.648;8.908;2023-05-10T05:13:25;11.40;99.90
11089;DHT22;5598;48.648;8.908;2023-05-10T05:15:52;11.40;99.90
11089;DHT22;5598;48.648;8.908;2023-05-10T05:18:20;11.40;99.90
11089;DHT22;5598;48.648;8.908;2023-05-10T05:20:46;11.40;99.90
11089;DHT22;5598;48.648;8.908;2023-05-10T05:23:13;11.40;99.90
11089;DHT22;5598;48.648;8.908;2023-05-10T05:25:40;11.40;99.90
11089;DHT22;5598;48.648;8.908;2023-05-10T05:28:08;11.40;99.90
11089;DHT22;5598;48.648;8.908;2023-05-10T05:30:35;11.40;99.90
11089;DHT22;5598;48.648;8.908;2023-05-10T05:33:02;11.50;99.90
11089;DHT22;5598;48.648;8.908;2023-05-10T05:35:29;11.50;99.90
11089;DHT22;5598;48.648;8.908;2023-05-10T05:37:56;11.60;99.90
11089;DHT22;5598;48.648;8.908;2023-05-10T05:40:22;11.60;99.90
11089;DHT22;5598;48.648;8.908;2023-05-10T05:42:49;11.60;99.90
11089;DHT22;5598;48.648;8.908;2023-05-10T05:45:17;11.70;99.90
11089;DHT22;5598;48.648;8.908;2023-05-10T05:47:44;11.70;99.90
11089;DHT22;5598;48.648;8.908;2023-05-10T05:50:11;11.70;99.90
11089;DHT22;5598;48.648;8.908;2023-05-10T05:52:38;11.70;99.90
11089;DHT22;5598;48.648;8.908;2023-05-10T05:55:05;11.70;99.90
11089;DHT22;5598;48.648;8.908;2023-05-10T05:57:32;11.80;99.90
11089;DHT22;5598;48.648;8.908;2023-05-10T05:59:59;11.70;99.90
11089;DHT22;5598;48.648;8.908;2023-05-10T06:02:27;11.80;99.90
11089;DHT22;5598;48.648;8.908;2023-05-10T06:04:54;11.80;99.90
11089;DHT22;5598;48.648;8.908;2023-05-10T06:07:20;11.70;99.90
11089;DHT22;5598;48.648;8.908;2023-05-10T06:09:47;11.70;99.90
11089;DHT22;5598;48.648;8.908;2023-05-10T06:12:14;11.90;99.90
11089;DHT22;5598;48.648;8.908;2023-05-10T06:14:41;11.90;99.90
11089;DHT22;5598;48.648;8.908;2023-05-10T06:17:07;12.00;99.90
11089;DHT22;5598;48.648;8.908;2023-05-10T06:19:35;12.00;99.90
11089;DHT22;5598;48.648;8.908;2023-05-10T06:22:02;11.90;99.90
11089;DHT22;5598;48.648;8.908;2023-05-10T06:24:29;12.00;99.90
11089;DHT22;5598;48.648;8.908;2023-05-10T06:26:56;12.00;99.90
11089;DHT22;5598;48.648;8.908;2023-05-10T06:29:25;12.10;99.90
11089;DHT22;5598;48.648;8.908;2023-05-10T06:31:52;12.20;99.90
11089;DHT22;5598;48.648;8.908;2023-05-10T06:34:19;12.20;99.90
11089;DHT22;5598;48.648;8.908;2023-05-10T06:36:47;12.30;99.90
11089;DHT22;5598;48.648;8.908;2023-05-10T06:39:14;12.30;99.90
11089;DHT22;5598;48.648;8.908;2023-05-10T06:41:41;12.30;99.90
11089;DHT22;5598;48.648;8.908;2023-05-10T06:44:08;12.40;99.90
11089;DHT22;5598;48.648;8.908;2023-05-10T06:46:35;12.40;99.90
11089;DHT22;5598;48.648;8.908;2023-05-10T06:49:02;12.40;99.90
11089;DHT22;5598;48.648;8.908;2023-05-10T06:51:28;12.40;99.90
11089;DHT22;5598;48.648;8.908;2023-05-10T06:53:57;12.50;99.90
11089;DHT22;5598;48.648;8.908;2023-05-10T06:56:23;12.60;99.90
11089;DHT22;5598;48.648;8.908;2023-05-10T06:58:50;12.70;99.90
11089;DHT22;5598;48.648;8.908;2023-05-10T07:01:17;12.70;99.90
11089;DHT22;5598;48.648;8.908;2023-05-10T07:03:44;12.80;99.90
11089;DHT22;5598;48.648;8.908;2023-05-10T07:06:10;12.80;99.90
11089;DHT22;5598;48.648;8.908;2023-05-10T07:08:37;12.80;99.90
11089;DHT22;5598;48.648;8.908;2023-05-10T07:11:07;12.80;99.90
11089;DHT22;5598;48.648;8.908;2023-05-10T07:13:34;12.80;99.90
11089;DHT22;5598;48.648;8.908;2023-05-10T07:16:02;12.80;99.90
11089;DHT22;5598;48.648;8.908;2023-05-10T07:18:29;12.80;99.90
11089;DHT22;5598;48.648;8.908;2023-05-10T07:20:57;12.90;99.90
11089;DHT22;5598;48.648;8.908;2023-05-10T07:23:23;12.80;99.90
11089;DHT22;5598;48.648;8.908;2023-05-10T07:25:51;12.80;99.90
11089;DHT22;5598;48.648;8.908;2023-05-10T07:28:19;12.80;99.90
11089;DHT22;5598;48.648;8.908;2023-05-10T07:30:46;12.90;99.90
11089;DHT22;5598;48.648;8.908;2023-05-10T07:33:14;12.90;99.90
11089;DHT22;5598;48.648;8.908;2023-05-10T07:35:41;12.90;99.90
11089;DHT22;5598;48.648;8.908;2023-05-10T07:38:07;13.00;99.90
11089;DHT22;5598;48.648;8.908;2023-05-10T07:40:36;13.00;99.90
11089;DHT22;5598;48.648;8.908;2023-05-10T07:43:03;13.00;99.90
11089;DHT22;5598;48.648;8.908;2023-05-10T07:45:32;13.10;99.90
11089;DHT22;5598;48.648;8.908;2023-05-10T07:47:59;13.10;99.90
11089;DHT22;5598;48.648;8.908;2023-05-10T07:50:26;13.30;99.90
11089;DHT22;5598;48.648;8.908;2023-05-10T07:52:53;13.30;99.90
11089;DHT22;5598;48.648;8.908;2023-05-10T07:55:20;13.30;99.90
11089;DHT22;5598;48.648;8.908;2023-05-10T07:57:47;13.20;99.90
11089;DHT22;5598;48.648;8.908;2023-05-10T08:00:18;13.30;99.90
11089;DHT22;5598;48.648;8.908;2023-05-10T08:02:47;13.40;99.90
11089;DHT22;5598;48.648;8.908;2023-05-10T08:05:14;13.40;99.90
11089;DHT22;5598;48.648;8.908;2023-05-10T08:07:40;13.40;99.90
11089;DHT22;5598;48.648;8.908;2023-05-10T08:10:08;13.50;99.90
11089;DHT22;5598;48.648;8.908;2023-05-10T08:12:36;13.70;99.90
11089;DHT22;5598;48.648;8.908;2023-05-10T08:15:03;13.60;99.90
11089;DHT22;5598;48.648;8.908;2023-05-10T08:17:30;13.60;99.90
11089;DHT22;5598;48.648;8.908;2023-05-10T08:19:59;13.80;99.90
11089;DHT22;5598;48.648;8.908;2023-05-10T08:22:26;13.70;99.90
11089;DHT22;5598;48.648;8.908;2023-05-10T08:24:53;13.80;99.90
11089;DHT22;5598;48.648;8.908;2023-05-10T08:27:19;13.90;99.90
11089;DHT22;5598;48.648;8.908;2023-05-10T08:29:46;14.10;99.90
11089;DHT22;5598;48.648;8.908;2023-05-10T08:32:13;14.20;99.90
11089;DHT22;5598;48.648;8.908;2023-05-10T08:34:40;14.40;99.90
11089;DHT22;5598;48.648;8.908;2023-05-10T08:37:08;14.30;99.90
11089;DHT22;5598;48.648;8.908;2023-05-10T08:39:36;14.20;99.90
11089;DHT22;5598;48.648;8.908;2023-05-10T08:42:04;14.10;99.90
11089;DHT22;5598;48.648;8.908;2023-05-10T08:44:32;14.30;99.90
11089;DHT22;5598;48.648;8.908;2023-05-10T08:47:04;14.60;99.90
11089;DHT22;5598;48.648;8.908;2023-05-10T08:49:32;14.70;99.90
11089;DHT22;5598;48.648;8.908;2023-05-10T08:52:02;14.70;99.90
11089;DHT22;5598;48.648;8.908;2023-05-10T08:54:33;14.60;99.90
11089;DHT22;5598;48.648;8.908;2023-05-10T08:57:00;14.60;99.90
11089;DHT22;5598;48.648;8.908;2023-05-10T08:59:27;14.70;99.90
11089;DHT22;5598;48.648;8.908;2023-05-10T09:01:56;14.60;99.90
11089;DHT22;5598;48.648;8.908;2023-05-10T09:04:24;14.80;99.90
11089;DHT22;5598;48.648;8.908;2023-05-10T09:06:51;14.80;99.90
11089;DHT22;5598;48.648;8.908;2023-05-10T09:09:18;14.80;99.90
11089;DHT22;5598;48.648;8.908;2023-05-10T09:11:47;15.00;99.90
11089;DHT22;5598;48.648;8.908;2023-05-10T09:14:15;15.10;99.90
11089;DHT22;5598;48.648;8.908;2023-05-10T09:16:42;15.50;99.90
11089;DHT22;5598;48.648;8.908;2023-05-10T09:19:09;16.00;99.90
11089;DHT22;5598;48.648;8.908;2023-05-10T09:21:36;16.10;99.90
11089;DHT22;5598;48.648;8.908;2023-05-10T09:24:05;15.90;99.90
11089;DHT22;5598;48.648;8.908;2023-05-10T09:26:32;16.10;99.90
11089;DHT22;5598;48.648;8.908;2023-05-10T09:29:00;16.00;99.90
11089;DHT22;5598;48.648;8.908;2023-05-10T09:31:49;15.90;99.90
11089;DHT22;5598;48.648;8.908;2023-05-10T09:34:18;15.70;99.90
11089;DHT22;5598;48.648;8.908;2023-05-10T09:36:52;15.20;99.90
11089;DHT22;5598;48.648;8.908;2023-05-10T09:39:20;14.80;99.90
11089;DHT22;5598;48.648;8.908;2023-05-10T09:41:47;14.90;99.90
11089;DHT22;5598;48.648;8.908;2023-05-10T09:44:18;14.80;99.90
11089;DHT22;5598;48.648;8.908;2023-05-10T09:46:49;14.90;99.90
11089;DHT22;5598;48.648;8.908;2023-05-10T09:49:18;15.10;99.90
11089;DHT22;5598;48.648;8.908;2023-05-10T09:51:45;15.20;99.90
11089;DHT22;5598;48.648;8.908;2023-05-10T09:54:13;15.20;99.90
11089;DHT22;5598;48.648;8.908;2023-05-10T09:56:40;15.30;99.90
11089;DHT22;5598;48.648;8.908;2023-05-10T09:59:09;15.50;99.90
11089;DHT22;5598;48.648;8.908;2023-05-10T10:01:38;15.60;99.90
11089;DHT22;5598;48.648;8.908;2023-05-10T10:04:07;15.70;99.90
11089;DHT22;5598;48.648;8.908;2023-05-10T10:06:37;16.10;99.90
11089;DHT22;5598;48.648;8.908;2023-05-10T10:09:04;16.50;99.90
11089;DHT22;5598;48.648;8.908;2023-05-10T10:11:32;17.00;99.90
11089;DHT22;5598;48.648;8.908;2023-05-10T10:13:59;17.70;99.90
11089;DHT22;5598;48.648;8.908;2023-05-10T10:16:27;18.50;99.90
11089;DHT22;5598;48.648;8.908;2023-05-10T10:18:56;18.90;99.90
11089;DHT22;5598;48.648;8.908;2023-05-10T10:21:24;19.40;99.90
11089;DHT22;5598;48.648;8.908;2023-05-10T10:23:51;19.60;99.90
11089;DHT22;5598;48.648;8.908;2023-05-10T10:26:19;19.50;99.90
11089;DHT22;5598;48.648;8.908;2023-05-10T10:28:51;18.50;99.90
11089;DHT22;5598;48.648;8.908;2023-05-10T10:31:26;17.10;99.90
11089;DHT22;5598;48.648;8.908;2023-05-10T10:34:06;16.00;99.90
11089;DHT22;5598;48.648;8.908;2023-05-10T10:36:40;15.40;99.90
11089;DHT22;5598;48.648;8.908;2023-05-10T10:39:09;15.00;99.90
11089;DHT22;5598;48.648;8.908;2023-05-10T10:41:38;14.70;99.90
11089;DHT22;5598;48.648;8.908;2023-05-10T10:44:35;14.40;99.90
11089;DHT22;5598;48.648;8.908;2023-05-10T10:47:22;14.20;99.90
11089;DHT22;5598;48.648;8.908;2023-05-10T10:50:06;14.00;99.90
11089;DHT22;5598;48.648;8.908;2023-05-10T10:52:34;13.90;99.90
11089;DHT22;5598;48.648;8.908;2023-05-10T10:55:03;13.80;99.90
11089;DHT22;5598;48.648;8.908;2023-05-10T10:57:32;13.80;99.90
11089;DHT22;5598;48.648;8.908;2023-05-10T11:00:19;13.70;99.90
11089;DHT22;5598;48.648;8.908;2023-05-10T11:02:47;13.70;99.90
11089;DHT22;5598;48.648;8.908;2023-05-10T11:08:13;13.80;99.90
11089;DHT22;5598;48.648;8.908;2023-05-10T11:10:50;14.10;99.90
11089;DHT22;5598;48.648;8.908;2023-05-10T11:13:27;14.50;99.90
11089;DHT22;5598;48.648;8.908;2023-05-10T11:15:55;14.70;99.90
11089;DHT22;5598;48.648;8.908;2023-05-10T11:18:24;15.00;99.90
11089;DHT22;5598;48.648;8.908;2023-05-10T11:20:55;15.20;99.90
11089;DHT22;5598;48.648;8.908;2023-05-10T11:23:23;15.60;99.90
11089;DHT22;5598;48.648;8.908;2023-05-10T11:25:50;15.60;99.90
11089;DHT22;5598;48.648;8.908;2023-05-10T11:28:17;15.40;99.90
11089;DHT22;5598;48.648;8.908;2023-05-10T11:30:45;15.20;99.90
11089;DHT22;5598;48.648;8.908;2023-05-10T11:33:15;15.10;99.90
11089;DHT22;5598;48.648;8.908;2023-05-10T11:35:43;15.10;99.90
11089;DHT22;5598;48.648;8.908;2023-05-10T11:38:12;15.20;99.90
11089;DHT22;5598;48.648;8.908;2023-05-10T11:40:40;15.40;99.90
11089;DHT22;5598;48.648;8.908;2023-05-10T11:43:09;15.60;99.90
11089;DHT22;5598;48.648;8.908;2023-05-10T11:45:37;16.00;99.90
11089;DHT22;5598;48.648;8.908;2023-05-10T11:48:04;16.20;99.90
11089;DHT22;5598;48.648;8.908;2023-05-10T11:50:31;16.40;99.90
11089;DHT22;5598;48.648;8.908;2023-05-10T11:52:58;16.40;99.90
11089;DHT22;5598;48.648;8.908;2023-05-10T11:55:26;15.90;99.90
11089;DHT22;5598;48.648;8.908;2023-05-10T11:57:59;15.70;99.90
11089;DHT22;5598;48.648;8.908;2023-05-10T12:00:26;15.80;99.90
11089;DHT22;5598;48.648;8.908;2023-05-10T12:02:53;15.50;99.90
11089;DHT22;5598;48.648;8.908;2023-05-10T12:05:20;14.80;99.90
11089;DHT22;5598;48.648;8.908;2023-05-10T12:07:47;14.60;99.90
11089;DHT22;5598;48.648;8.908;2023-05-10T12:10:14;14.40;99.90
11089;DHT22;5598;48.648;8.908;2023-05-10T12:12:44;14.40;99.90
11089;DHT22;5598;48.648;8.908;2023-05-10T12:15:17;14.30;99.90
11089;DHT22;5598;48.648;8.908;2023-05-10T12:17:45;14.30;99.90
11089;DHT22;5598;48.648;8.908;2023-05-10T12:20:17;14.40;99.90
11089;DHT22;5598;48.648;8.908;2023-05-10T12:22:45;14.40;99.90
11089;DHT22;5598;48.648;8.908;2023-05-10T12:25:12;14.50;99.90
11089;DHT22;5598;48.648;8.908;2023-05-10T12:27:39;14.20;99.90
11089;DHT22;5598;48.648;8.908;2023-05-10T12:30:08;14.10;99.90
11089;DHT22;5598;48.648;8.908;2023-05-10T12:32:39;14.20;99.90
11089;DHT22;5598;48.648;8.908;2023-05-10T12:35:07;14.10;99.90
11089;DHT22;5598;48.648;8.908;2023-05-10T12:37:34;14.00;99.90
11089;DHT22;5598;48.648;8.908;2023-05-10T12:40:06;14.20;99.90
11089;DHT22;5598;48.648;8.908;2023-05-10T12:42:34;14.30;99.90
11089;DHT22;5598;48.648;8.908;2023-05-10T12:45:02;14.30;99.90
11089;DHT22;5598;48.648;8.908;2023-05-10T12:47:30;14.20;99.90
11089;DHT22;5598;48.648;8.908;2023-05-10T12:49:57;14.20;99.90
11089;DHT22;5598;48.648;8.908;2023-05-10T12:52:25;14.40;99.90
11089;DHT22;5598;48.648;8.908;2023-05-10T12:54:52;14.40;99.90
11089;DHT22;5598;48.648;8.908;2023-05-10T12:57:20;14.40;99.90
11089;DHT22;5598;48.648;8.908;2023-05-10T12:59:47;14.30;99.90
11089;DHT22;5598;48.648;8.908;2023-05-10T13:02:13;14.30;99.90
11089;DHT22;5598;48.648;8.908;2023-05-10T13:04:42;14.50;99.90
11089;DHT22;5598;48.648;8.908;2023-05-10T13:07:09;14.70;99.90
11089;DHT22;5598;48.648;8.908;2023-05-10T13:09:36;14.90;99.90
11089;DHT22;5598;48.648;8.908;2023-05-10T13:12:03;15.00;99.90
11089;DHT22;5598;48.648;8.908;2023-05-10T13:14:30;15.30;99.90
11089;DHT22;5598;48.648;8.908;2023-05-10T13:16:57;15.30;99.90
11089;DHT22;5598;48.648;8.908;2023-05-10T13:19:25;15.20;99.80
11089;DHT22;5598;48.648;8.908;2023-05-10T13:21:54;15.30;99.90
11089;DHT22;5598;48.648;8.908;2023-05-10T13:24:20;15.40;99.90
11089;DHT22;5598;48.648;8.908;2023-05-10T13:26:47;15.30;99.90
11089;DHT22;5598;48.648;8.908;2023-05-10T13:29:14;15.30;99.90
11089;DHT22;5598;48.648;8.908;2023-05-10T13:31:43;15.50;99.90
11089;DHT22;5598;48.648;8.908;2023-05-10T13:34:10;15.50;99.90
11089;DHT22;5598;48.648;8.908;2023-05-10T13:36:37;15.70;99.90
11089;DHT22;5598;48.648;8.908;2023-05-10T13:39:05;16.00;99.90
11089;DHT22;5598;48.648;8.908;2023-05-10T13:41:32;16.00;99.60
11089;DHT22;5598;48.648;8.908;2023-05-10T13:43:58;16.00;99.90
11089;DHT22;5598;48.648;8.908;2023-05-10T13:46:25;16.00;99.90
11089;DHT22;5598;48.648;8.908;2023-05-10T13:48:52;16.30;99.90
11089;DHT22;5598;48.648;8.908;2023-05-10T13:51:19;16.50;99.90
11089;DHT22;5598;48.648;8.908;2023-05-10T13:53:45;16.80;99.60
11089;DHT22;5598;48.648;8.908;2023-05-10T13:56:14;16.80;98.00
11089;DHT22;5598;48.648;8.908;2023-05-10T13:58:41;17.00;99.90
11089;DHT22;5598;48.648;8.908;2023-05-10T14:01:08;17.30;99.00
11089;DHT22;5598;48.648;8.908;2023-05-10T14:03:36;17.30;98.50
11089;DHT22;5598;48.648;8.908;2023-05-10T14:06:05;17.40;99.10
11089;DHT22;5598;48.648;8.908;2023-05-10T14:08:34;17.60;98.20
11089;DHT22;5598;48.648;8.908;2023-05-10T14:11:02;17.80;98.10
11089;DHT22;5598;48.648;8.908;2023-05-10T14:13:30;17.40;98.80
11089;DHT22;5598;48.648;8.908;2023-05-10T14:15:57;17.30;97.50
11089;DHT22;5598;48.648;8.908;2023-05-10T14:18:25;17.30;95.60
11089;DHT22;5598;48.648;8.908;2023-05-10T14:20:52;16.70;93.80
11089;DHT22;5598;48.648;8.908;2023-05-10T14:23:20;16.40;94.00
11089;DHT22;5598;48.648;8.908;2023-05-10T14:25:49;16.20;95.10
11089;DHT22;5598;48.648;8.908;2023-05-10T14:28:16;16.20;96.80
11089;DHT22;5598;48.648;8.908;2023-05-10T14:30:45;16.10;95.00
11089;DHT22;5598;48.648;8.908;2023-05-10T14:33:11;16.10;96.80
11089;DHT22;5598;48.648;8.908;2023-05-10T14:35:38;16.10;95.70
11089;DHT22;5598;48.648;8.908;2023-05-10T14:38:05;16.10;96.90
11089;DHT22;5598;48.648;8.908;2023-05-10T14:40:32;16.20;97.10
11089;DHT22;5598;48.648;8.908;2023-05-10T14:42:59;16.40;95.90
11089;DHT22;5598;48.648;8.908;2023-05-10T14:45:26;16.70;97.40
11089;DHT22;5598;48.648;8.908;2023-05-10T14:47:54;16.80;95.30
11089;DHT22;5598;48.648;8.908;2023-05-10T14:50:21;16.90;95.60
11089;DHT22;5598;48.648;8.908;2023-05-10T14:52:48;16.90;95.30
11089;DHT22;5598;48.648;8.908;2023-05-10T14:55:15;16.90;94.80
11089;DHT22;5598;48.648;8.908;2023-05-10T14:57:42;16.70;95.30
11089;DHT22;5598;48.648;8.908;2023-05-10T15:00:12;16.80;96.00
11089;DHT22;5598;48.648;8.908;2023-05-10T15:02:40;16.60;94.10
11089;DHT22;5598;48.648;8.908;2023-05-10T15:05:09;16.50;95.70
11089;DHT22;5598;48.648;8.908;2023-05-10T15:07:35;16.50;95.80
11089;DHT22;5598;48.648;8.908;2023-05-10T15:10:03;16.60;94.90
11089;DHT22;5598;48.648;8.908;2023-05-10T15:12:30;16.60;96.40
11089;DHT22;5598;48.648;8.908;2023-05-10T15:14:57;16.60;94.70
11089;DHT22;5598;48.648;8.908;2023-05-10T15:17:23;16.50;94.70
11089;DHT22;5598;48.648;8.908;2023-05-10T15:19:50;16.10;94.60
11089;DHT22;5598;48.648;8.908;2023-05-10T15:22:18;16.00;94.20
11089;DHT22;5598;48.648;8.908;2023-05-10T15:24:46;16.10;96.10
11089;DHT22;5598;48.648;8.908;2023-05-10T15:27:13;16.20;95.70
11089;DHT22;5598;48.648;8.908;2023-05-10T15:29:40;15.90;93.90
11089;DHT22;5598;48.648;8.908;2023-05-10T15:32:07;15.90;95.60
11089;DHT22;5598;48.648;8.908;2023-05-10T15:34:33;16.10;96.60
11089;DHT22;5598;48.648;8.908;2023-05-10T15:37:01;16.20;94.90
11089;DHT22;5598;48.648;8.908;2023-05-10T15:39:29;16.10;96.30
11089;DHT22;5598;48.648;8.908;2023-05-10T15:41:56;16.00;95.20
11089;DHT22;5598;48.648;8.908;2023-05-10T15:44:23;16.20;96.30
11089;DHT22;5598;48.648;8.908;2023-05-10T15:46:50;16.30;94.70
11089;DHT22;5598;48.648;8.908;2023-05-10T15:49:17;16.30;95.00
11089;DHT22;5598;48.648;8.908;2023-05-10T15:51:44;16.20;95.60
11089;DHT22;5598;48.648;8.908;2023-05-10T15:54:10;16.20;95.70